Fruithurst, AL (36262)

10:06 AM CST on February 13, 2016 (GMT -0600)
APRSWXNET | | Change Station
CLOSE
Current Station
Personal Weather Station
Location: Heflin, AL
Elevation: 1040 ft
Nearby Weather Stations

Elev 1040 ft 33.65 °N, 85.58 °W | Updated 23 minutes ago

Clear
Clear
34 °F
Feels Like 34 °F
N
1
Wind Variable Wind from West
Gusts 9.0 mph

Today
High -- | Low -- °F
--% Chance of Precip.
Yesterday
High -- | Low -- °F
Precip. -- in
Pressure 30.43 in
Visibility 10.0 miles
Clouds Clear
Windchill 34 °F
Dew Point 20 °F
Humidity 55%
Rainfall in
Snow Depth Not available.
6:28 AM 5:23 PM
Waxing Crescent, 32% visible
METAR KCTJ 131555Z AUTO 33014G22KT 10SM CLR 02/M12 A3043 RMK AO2 T00171123
Pressure 30.43 in
Visibility 10.0 miles
Clouds Clear
Windchill 34 °F
Dew Point 20 °F
Humidity 55%
Rainfall in
Snow Depth Not available.
6:28 AM 5:23 PM
Waxing Crescent, 32% visible
METAR KCTJ 131555Z AUTO 33014G22KT 10SM CLR 02/M12 A3043 RMK AO2 T00171123

10-Day Weather Forecast

Almanac

Astronomy

Feb. 13, 2016 Rise Set
Actual Time
Civil Twilight
Nautical Twilight
Astronomical Twilight
Moon
Length of Visible Light
Length of Day
Tomorrow will be .
, % of the Moon is Illuminated

Today's Extremes

State Highs State Lows

Community

WunderPhotos

Upload Photos

1,892,595 photos uploaded!

WunderBlog® & News

Nearby

Air Quality

  Air Quality AQ Index Pollutant
Not available.

Snow Depth

Station Depth Elevation

Earthquake Activity

City Distance Mag. Time & Date
Minimum magnitude displayed is 2.5.

Coastal Water Temperatures

Place Temperature

Stations

Nearby Weather Stations

Station Location Temp. Windchill Dew Point Humidity Wind Precip. Elev Updated Type
                   

Watches & Warnings

There are currently no watches in effect.